sensor_id;sensor_type;location;lat;lon;timestamp;P1;durP1;ratioP1;P2;durP2;ratioP2
64401;SDS011;50724;42.376;23.768;2023-06-10T00:01:17;8.93;;;4.93;;
64401;SDS011;50724;42.376;23.768;2023-06-10T00:04:18;8.18;;;4.85;;
64401;SDS011;50724;42.376;23.768;2023-06-10T00:07:18;8.47;;;4.57;;
64401;SDS011;50724;42.376;23.768;2023-06-10T00:10:18;10.32;;;5.20;;
64401;SDS011;50724;42.376;23.768;2023-06-10T00:13:19;9.98;;;5.05;;
64401;SDS011;50724;42.376;23.768;2023-06-10T00:16:20;11.23;;;5.28;;
64401;SDS011;50724;42.376;23.768;2023-06-10T00:19:20;10.07;;;5.03;;
64401;SDS011;50724;42.376;23.768;2023-06-10T00:22:25;12.73;;;4.97;;
64401;SDS011;50724;42.376;23.768;2023-06-10T00:25:29;11.60;;;4.88;;
64401;SDS011;50724;42.376;23.768;2023-06-10T00:28:30;9.55;;;5.32;;
64401;SDS011;50724;42.376;23.768;2023-06-10T00:31:30;9.98;;;5.53;;
64401;SDS011;50724;42.376;23.768;2023-06-10T00:34:31;16.25;;;5.78;;
64401;SDS011;50724;42.376;23.768;2023-06-10T00:37:32;9.48;;;5.13;;
64401;SDS011;50724;42.376;23.768;2023-06-10T00:40:39;12.88;;;5.05;;
64401;SDS011;50724;42.376;23.768;2023-06-10T00:43:49;9.65;;;5.80;;
64401;SDS011;50724;42.376;23.768;2023-06-10T00:46:49;9.43;;;5.28;;
64401;SDS011;50724;42.376;23.768;2023-06-10T00:49:51;9.25;;;5.13;;
64401;SDS011;50724;42.376;23.768;2023-06-10T00:52:52;8.80;;;5.60;;
64401;SDS011;50724;42.376;23.768;2023-06-10T00:55:54;13.13;;;5.68;;
64401;SDS011;50724;42.376;23.768;2023-06-10T00:58:55;10.63;;;5.95;;
64401;SDS011;50724;42.376;23.768;2023-06-10T01:01:55;11.55;;;5.82;;
64401;SDS011;50724;42.376;23.768;2023-06-10T01:04:56;12.05;;;5.88;;
64401;SDS011;50724;42.376;23.768;2023-06-10T01:11:08;9.50;;;5.82;;
64401;SDS011;50724;42.376;23.768;2023-06-10T01:14:19;10.80;;;5.75;;
64401;SDS011;50724;42.376;23.768;2023-06-10T01:17:20;8.38;;;5.78;;
64401;SDS011;50724;42.376;23.768;2023-06-10T01:20:22;9.68;;;6.03;;
64401;SDS011;50724;42.376;23.768;2023-06-10T01:23:22;10.07;;;5.60;;
64401;SDS011;50724;42.376;23.768;2023-06-10T01:26:24;9.85;;;5.70;;
64401;SDS011;50724;42.376;23.768;2023-06-10T01:29:33;10.52;;;5.72;;
64401;SDS011;50724;42.376;23.768;2023-06-10T01:32:56;10.82;;;6.15;;
64401;SDS011;50724;42.376;23.768;2023-06-10T01:35:59;11.45;;;5.93;;
64401;SDS011;50724;42.376;23.768;2023-06-10T01:39:02;12.60;;;5.63;;
64401;SDS011;50724;42.376;23.768;2023-06-10T01:42:04;10.68;;;5.72;;
64401;SDS011;50724;42.376;23.768;2023-06-10T01:45:06;10.63;;;5.63;;
64401;SDS011;50724;42.376;23.768;2023-06-10T01:48:07;8.52;;;5.40;;
64401;SDS011;50724;42.376;23.768;2023-06-10T01:51:07;13.75;;;6.43;;
64401;SDS011;50724;42.376;23.768;2023-06-10T01:54:08;9.40;;;5.25;;
64401;SDS011;50724;42.376;23.768;2023-06-10T01:57:18;12.13;;;5.50;;
64401;SDS011;50724;42.376;23.768;2023-06-10T02:00:18;13.10;;;6.38;;
64401;SDS011;50724;42.376;23.768;2023-06-10T02:03:19;11.27;;;6.20;;
64401;SDS011;50724;42.376;23.768;2023-06-10T02:06:19;10.57;;;6.43;;
64401;SDS011;50724;42.376;23.768;2023-06-10T02:09:20;10.48;;;6.25;;
64401;SDS011;50724;42.376;23.768;2023-06-10T02:12:20;11.75;;;6.05;;
64401;SDS011;50724;42.376;23.768;2023-06-10T02:15:21;10.43;;;6.03;;
64401;SDS011;50724;42.376;23.768;2023-06-10T02:18:21;13.57;;;7.13;;
64401;SDS011;50724;42.376;23.768;2023-06-10T02:21:21;16.47;;;7.93;;
64401;SDS011;50724;42.376;23.768;2023-06-10T02:24:22;16.15;;;7.05;;
64401;SDS011;50724;42.376;23.768;2023-06-10T02:27:22;11.60;;;6.80;;
64401;SDS011;50724;42.376;23.768;2023-06-10T02:30:23;14.40;;;7.27;;
64401;SDS011;50724;42.376;23.768;2023-06-10T02:33:23;10.77;;;6.50;;
64401;SDS011;50724;42.376;23.768;2023-06-10T02:36:24;11.88;;;6.60;;
64401;SDS011;50724;42.376;23.768;2023-06-10T02:39:28;10.73;;;6.22;;
64401;SDS011;50724;42.376;23.768;2023-06-10T02:42:28;11.43;;;6.53;;
64401;SDS011;50724;42.376;23.768;2023-06-10T02:45:28;12.70;;;5.90;;
64401;SDS011;50724;42.376;23.768;2023-06-10T02:48:29;10.70;;;6.17;;
64401;SDS011;50724;42.376;23.768;2023-06-10T02:51:29;12.03;;;6.23;;
64401;SDS011;50724;42.376;23.768;2023-06-10T02:54:30;12.82;;;6.78;;
64401;SDS011;50724;42.376;23.768;2023-06-10T02:57:30;9.43;;;6.10;;
64401;SDS011;50724;42.376;23.768;2023-06-10T03:00:30;11.90;;;6.40;;
64401;SDS011;50724;42.376;23.768;2023-06-10T03:03:31;12.13;;;5.88;;
64401;SDS011;50724;42.376;23.768;2023-06-10T03:06:33;11.13;;;6.30;;
64401;SDS011;50724;42.376;23.768;2023-06-10T03:09:35;12.30;;;6.88;;
64401;SDS011;50724;42.376;23.768;2023-06-10T03:12:35;13.10;;;7.07;;
64401;SDS011;50724;42.376;23.768;2023-06-10T03:15:36;12.55;;;6.85;;
64401;SDS011;50724;42.376;23.768;2023-06-10T03:18:36;14.27;;;7.67;;
64401;SDS011;50724;42.376;23.768;2023-06-10T03:21:36;11.17;;;6.27;;
64401;SDS011;50724;42.376;23.768;2023-06-10T03:24:37;11.43;;;6.20;;
64401;SDS011;50724;42.376;23.768;2023-06-10T03:27:41;15.95;;;5.97;;
64401;SDS011;50724;42.376;23.768;2023-06-10T03:33:42;10.47;;;6.43;;
64401;SDS011;50724;42.376;23.768;2023-06-10T03:36:43;10.05;;;6.00;;
64401;SDS011;50724;42.376;23.768;2023-06-10T03:39:43;12.80;;;6.05;;
64401;SDS011;50724;42.376;23.768;2023-06-10T03:42:43;9.57;;;6.00;;
64401;SDS011;50724;42.376;23.768;2023-06-10T03:45:44;9.35;;;5.65;;
64401;SDS011;50724;42.376;23.768;2023-06-10T03:48:45;13.50;;;5.55;;
64401;SDS011;50724;42.376;23.768;2023-06-10T03:51:45;8.27;;;5.43;;
64401;SDS011;50724;42.376;23.768;2023-06-10T03:54:46;9.68;;;5.88;;
64401;SDS011;50724;42.376;23.768;2023-06-10T03:57:46;8.93;;;5.40;;
64401;SDS011;50724;42.376;23.768;2023-06-10T04:00:47;13.70;;;5.22;;
64401;SDS011;50724;42.376;23.768;2023-06-10T04:03:47;7.68;;;4.93;;
64401;SDS011;50724;42.376;23.768;2023-06-10T04:06:48;7.78;;;4.38;;
64401;SDS011;50724;42.376;23.768;2023-06-10T04:09:49;8.90;;;4.97;;
64401;SDS011;50724;42.376;23.768;2023-06-10T04:12:50;12.25;;;5.63;;
64401;SDS011;50724;42.376;23.768;2023-06-10T04:15:51;8.52;;;4.78;;
64401;SDS011;50724;42.376;23.768;2023-06-10T04:18:51;8.90;;;4.75;;
64401;SDS011;50724;42.376;23.768;2023-06-10T04:21:52;11.27;;;5.27;;
64401;SDS011;50724;42.376;23.768;2023-06-10T04:24:52;8.60;;;5.00;;
64401;SDS011;50724;42.376;23.768;2023-06-10T04:27:53;9.73;;;4.78;;
64401;SDS011;50724;42.376;23.768;2023-06-10T04:30:53;8.93;;;5.00;;
64401;SDS011;50724;42.376;23.768;2023-06-10T04:33:53;11.43;;;5.38;;
64401;SDS011;50724;42.376;23.768;2023-06-10T04:36:54;12.30;;;5.40;;
64401;SDS011;50724;42.376;23.768;2023-06-10T04:39:55;7.28;;;4.32;;
64401;SDS011;50724;42.376;23.768;2023-06-10T04:42:55;10.00;;;4.90;;
64401;SDS011;50724;42.376;23.768;2023-06-10T04:45:56;11.68;;;5.32;;
64401;SDS011;50724;42.376;23.768;2023-06-10T04:48:56;8.95;;;5.00;;
64401;SDS011;50724;42.376;23.768;2023-06-10T04:51:57;8.77;;;5.47;;
64401;SDS011;50724;42.376;23.768;2023-06-10T04:54:59;17.70;;;6.40;;
64401;SDS011;50724;42.376;23.768;2023-06-10T04:58:00;11.18;;;5.32;;
64401;SDS011;50724;42.376;23.768;2023-06-10T05:01:00;11.65;;;5.60;;
64401;SDS011;50724;42.376;23.768;2023-06-10T05:04:02;23.98;;;11.32;;
64401;SDS011;50724;42.376;23.768;2023-06-10T05:07:03;17.95;;;9.10;;
64401;SDS011;50724;42.376;23.768;2023-06-10T05:10:05;35.38;;;9.52;;
64401;SDS011;50724;42.376;23.768;2023-06-10T05:13:06;21.70;;;6.13;;
64401;SDS011;50724;42.376;23.768;2023-06-10T05:16:06;16.67;;;8.32;;
64401;SDS011;50724;42.376;23.768;2023-06-10T05:19:07;9.45;;;5.25;;
64401;SDS011;50724;42.376;23.768;2023-06-10T05:22:07;8.33;;;5.20;;
64401;SDS011;50724;42.376;23.768;2023-06-10T05:25:08;7.63;;;4.80;;
64401;SDS011;50724;42.376;23.768;2023-06-10T05:28:08;12.82;;;5.28;;
64401;SDS011;50724;42.376;23.768;2023-06-10T05:31:10;10.38;;;5.13;;
64401;SDS011;50724;42.376;23.768;2023-06-10T05:34:10;8.80;;;4.80;;
64401;SDS011;50724;42.376;23.768;2023-06-10T05:37:11;8.98;;;5.10;;
64401;SDS011;50724;42.376;23.768;2023-06-10T05:40:11;9.23;;;5.37;;
64401;SDS011;50724;42.376;23.768;2023-06-10T05:43:11;11.23;;;4.90;;
64401;SDS011;50724;42.376;23.768;2023-06-10T05:46:12;8.53;;;4.17;;
64401;SDS011;50724;42.376;23.768;2023-06-10T05:49:12;11.90;;;4.30;;
64401;SDS011;50724;42.376;23.768;2023-06-10T05:52:13;7.23;;;4.37;;
64401;SDS011;50724;42.376;23.768;2023-06-10T05:55:13;7.68;;;4.65;;
64401;SDS011;50724;42.376;23.768;2023-06-10T05:58:14;6.22;;;4.20;;
64401;SDS011;50724;42.376;23.768;2023-06-10T06:01:23;6.18;;;3.42;;
64401;SDS011;50724;42.376;23.768;2023-06-10T06:04:24;5.50;;;3.10;;
64401;SDS011;50724;42.376;23.768;2023-06-10T06:07:25;7.85;;;2.97;;
64401;SDS011;50724;42.376;23.768;2023-06-10T06:10:25;6.15;;;3.08;;
64401;SDS011;50724;42.376;23.768;2023-06-10T06:13:25;5.67;;;3.20;;
64401;SDS011;50724;42.376;23.768;2023-06-10T06:16:26;6.65;;;3.08;;
64401;SDS011;50724;42.376;23.768;2023-06-10T06:19:26;8.00;;;3.43;;
64401;SDS011;50724;42.376;23.768;2023-06-10T06:22:27;6.78;;;3.22;;
64401;SDS011;50724;42.376;23.768;2023-06-10T06:25:27;7.68;;;3.67;;
64401;SDS011;50724;42.376;23.768;2023-06-10T06:28:28;11.90;;;3.60;;
64401;SDS011;50724;42.376;23.768;2023-06-10T06:31:29;9.18;;;3.70;;
64401;SDS011;50724;42.376;23.768;2023-06-10T06:34:30;5.47;;;3.45;;
64401;SDS011;50724;42.376;23.768;2023-06-10T06:37:30;6.93;;;3.55;;
64401;SDS011;50724;42.376;23.768;2023-06-10T06:40:30;6.03;;;3.22;;
64401;SDS011;50724;42.376;23.768;2023-06-10T06:43:31;7.55;;;3.20;;
64401;SDS011;50724;42.376;23.768;2023-06-10T06:46:31;5.90;;;3.65;;
64401;SDS011;50724;42.376;23.768;2023-06-10T06:49:32;7.07;;;3.90;;
64401;SDS011;50724;42.376;23.768;2023-06-10T06:52:32;8.43;;;4.10;;
64401;SDS011;50724;42.376;23.768;2023-06-10T06:55:33;6.68;;;4.00;;
64401;SDS011;50724;42.376;23.768;2023-06-10T06:58:33;6.25;;;3.70;;
64401;SDS011;50724;42.376;23.768;2023-06-10T07:01:33;8.27;;;4.13;;
64401;SDS011;50724;42.376;23.768;2023-06-10T07:04:34;7.35;;;3.92;;
64401;SDS011;50724;42.376;23.768;2023-06-10T07:07:35;8.50;;;4.70;;
64401;SDS011;50724;42.376;23.768;2023-06-10T07:10:36;8.23;;;4.77;;
64401;SDS011;50724;42.376;23.768;2023-06-10T07:13:36;10.40;;;5.65;;
64401;SDS011;50724;42.376;23.768;2023-06-10T07:16:36;8.70;;;5.30;;
64401;SDS011;50724;42.376;23.768;2023-06-10T07:19:40;8.50;;;5.03;;
64401;SDS011;50724;42.376;23.768;2023-06-10T07:22:41;7.15;;;4.97;;
64401;SDS011;50724;42.376;23.768;2023-06-10T07:25:42;11.38;;;4.70;;
64401;SDS011;50724;42.376;23.768;2023-06-10T07:28:43;9.48;;;4.72;;
64401;SDS011;50724;42.376;23.768;2023-06-10T07:31:43;7.25;;;4.20;;
64401;SDS011;50724;42.376;23.768;2023-06-10T07:34:44;7.28;;;4.70;;
64401;SDS011;50724;42.376;23.768;2023-06-10T07:37:44;8.30;;;4.63;;
64401;SDS011;50724;42.376;23.768;2023-06-10T07:40:45;10.90;;;4.47;;
64401;SDS011;50724;42.376;23.768;2023-06-10T07:43:46;9.77;;;4.22;;
64401;SDS011;50724;42.376;23.768;2023-06-10T07:46:46;7.70;;;4.75;;
64401;SDS011;50724;42.376;23.768;2023-06-10T07:49:47;6.97;;;3.97;;
64401;SDS011;50724;42.376;23.768;2023-06-10T07:52:47;8.93;;;4.53;;
64401;SDS011;50724;42.376;23.768;2023-06-10T07:58:56;11.50;;;5.23;;
64401;SDS011;50724;42.376;23.768;2023-06-10T08:01:57;7.82;;;4.53;;
64401;SDS011;50724;42.376;23.768;2023-06-10T08:04:57;8.77;;;5.65;;
64401;SDS011;50724;42.376;23.768;2023-06-10T08:07:57;14.80;;;7.63;;
64401;SDS011;50724;42.376;23.768;2023-06-10T08:10:58;8.13;;;3.90;;
64401;SDS011;50724;42.376;23.768;2023-06-10T08:13:58;8.90;;;5.53;;
64401;SDS011;50724;42.376;23.768;2023-06-10T08:16:59;10.60;;;6.03;;
64401;SDS011;50724;42.376;23.768;2023-06-10T08:20:00;8.45;;;4.60;;
64401;SDS011;50724;42.376;23.768;2023-06-10T08:23:00;8.02;;;4.25;;
64401;SDS011;50724;42.376;23.768;2023-06-10T08:26:01;7.50;;;4.50;;
64401;SDS011;50724;42.376;23.768;2023-06-10T08:29:02;6.68;;;4.20;;
64401;SDS011;50724;42.376;23.768;2023-06-10T08:32:02;8.05;;;4.00;;
64401;SDS011;50724;42.376;23.768;2023-06-10T08:35:03;6.50;;;3.72;;
64401;SDS011;50724;42.376;23.768;2023-06-10T08:38:07;7.68;;;3.72;;
64401;SDS011;50724;42.376;23.768;2023-06-10T08:41:07;7.00;;;3.63;;
64401;SDS011;50724;42.376;23.768;2023-06-10T08:47:22;6.45;;;3.47;;
64401;SDS011;50724;42.376;23.768;2023-06-10T08:50:24;8.68;;;3.80;;
64401;SDS011;50724;42.376;23.768;2023-06-10T08:56:28;7.43;;;4.65;;
64401;SDS011;50724;42.376;23.768;2023-06-10T08:59:30;7.03;;;3.38;;
64401;SDS011;50724;42.376;23.768;2023-06-10T09:02:31;6.18;;;3.22;;
64401;SDS011;50724;42.376;23.768;2023-06-10T09:05:35;7.45;;;3.38;;
64401;SDS011;50724;42.376;23.768;2023-06-10T09:08:38;5.70;;;2.97;;
64401;SDS011;50724;42.376;23.768;2023-06-10T09:11:40;5.75;;;2.58;;
64401;SDS011;50724;42.376;23.768;2023-06-10T09:14:42;6.60;;;3.03;;
64401;SDS011;50724;42.376;23.768;2023-06-10T09:17:43;9.15;;;3.28;;
64401;SDS011;50724;42.376;23.768;2023-06-10T09:20:44;7.65;;;2.92;;
64401;SDS011;50724;42.376;23.768;2023-06-10T09:23:45;8.30;;;3.45;;
64401;SDS011;50724;42.376;23.768;2023-06-10T09:26:46;4.95;;;2.47;;
64401;SDS011;50724;42.376;23.768;2023-06-10T09:32:58;6.65;;;3.20;;
64401;SDS011;50724;42.376;23.768;2023-06-10T09:36:01;6.60;;;2.85;;
64401;SDS011;50724;42.376;23.768;2023-06-10T09:39:02;5.72;;;2.88;;
64401;SDS011;50724;42.376;23.768;2023-06-10T09:42:16;6.25;;;2.65;;
64401;SDS011;50724;42.376;23.768;2023-06-10T09:45:18;7.90;;;3.97;;
64401;SDS011;50724;42.376;23.768;2023-06-10T09:48:18;6.97;;;3.10;;
64401;SDS011;50724;42.376;23.768;2023-06-10T09:51:19;4.93;;;3.05;;
64401;SDS011;50724;42.376;23.768;2023-06-10T09:54:19;5.18;;;2.90;;
64401;SDS011;50724;42.376;23.768;2023-06-10T09:57:21;9.20;;;2.92;;
64401;SDS011;50724;42.376;23.768;2023-06-10T10:00:22;6.13;;;3.13;;
64401;SDS011;50724;42.376;23.768;2023-06-10T10:03:23;6.18;;;3.20;;
64401;SDS011;50724;42.376;23.768;2023-06-10T10:06:24;6.72;;;2.78;;
64401;SDS011;50724;42.376;23.768;2023-06-10T10:09:25;8.77;;;3.70;;
64401;SDS011;50724;42.376;23.768;2023-06-10T10:12:25;4.63;;;2.73;;
64401;SDS011;50724;42.376;23.768;2023-06-10T10:15:28;6.80;;;3.22;;
64401;SDS011;50724;42.376;23.768;2023-06-10T10:18:32;8.38;;;3.08;;
64401;SDS011;50724;42.376;23.768;2023-06-10T10:21:38;4.47;;;2.72;;
64401;SDS011;50724;42.376;23.768;2023-06-10T10:24:49;7.20;;;3.60;;
64401;SDS011;50724;42.376;23.768;2023-06-10T10:27:52;6.97;;;3.08;;
64401;SDS011;50724;42.376;23.768;2023-06-10T10:30:59;6.22;;;2.95;;
64401;SDS011;50724;42.376;23.768;2023-06-10T10:34:09;5.30;;;2.53;;
64401;SDS011;50724;42.376;23.768;2023-06-10T10:37:14;6.68;;;2.95;;
64401;SDS011;50724;42.376;23.768;2023-06-10T10:40:15;7.53;;;4.15;;
64401;SDS011;50724;42.376;23.768;2023-06-10T10:43:16;5.20;;;2.80;;
64401;SDS011;50724;42.376;23.768;2023-06-10T10:46:18;5.80;;;3.05;;
64401;SDS011;50724;42.376;23.768;2023-06-10T10:49:18;5.65;;;3.17;;
64401;SDS011;50724;42.376;23.768;2023-06-10T10:58:25;5.60;;;2.95;;
64401;SDS011;50724;42.376;23.768;2023-06-10T11:01:26;7.60;;;3.17;;
64401;SDS011;50724;42.376;23.768;2023-06-10T11:04:44;5.05;;;2.97;;
64401;SDS011;50724;42.376;23.768;2023-06-10T11:07:53;6.07;;;2.95;;
64401;SDS011;50724;42.376;23.768;2023-06-10T11:10:55;5.70;;;3.00;;
64401;SDS011;50724;42.376;23.768;2023-06-10T11:17:03;6.72;;;3.15;;
64401;SDS011;50724;42.376;23.768;2023-06-10T11:20:41;8.90;;;3.05;;
64401;SDS011;50724;42.376;23.768;2023-06-10T11:23:51;7.85;;;3.70;;
64401;SDS011;50724;42.376;23.768;2023-06-10T11:26:51;7.07;;;3.42;;
64401;SDS011;50724;42.376;23.768;2023-06-10T11:29:58;5.63;;;3.33;;
64401;SDS011;50724;42.376;23.768;2023-06-10T11:36:28;6.03;;;3.10;;
64401;SDS011;50724;42.376;23.768;2023-06-10T11:39:29;6.47;;;2.92;;
64401;SDS011;50724;42.376;23.768;2023-06-10T11:42:29;6.95;;;3.28;;
64401;SDS011;50724;42.376;23.768;2023-06-10T11:45:30;7.05;;;2.63;;
64401;SDS011;50724;42.376;23.768;2023-06-10T11:48:30;5.47;;;2.75;;
64401;SDS011;50724;42.376;23.768;2023-06-10T11:51:35;6.13;;;3.47;;
64401;SDS011;50724;42.376;23.768;2023-06-10T11:54:37;5.20;;;2.72;;
64401;SDS011;50724;42.376;23.768;2023-06-10T12:00:48;7.75;;;3.55;;
64401;SDS011;50724;42.376;23.768;2023-06-10T12:03:56;5.90;;;3.22;;
64401;SDS011;50724;42.376;23.768;2023-06-10T12:06:58;6.43;;;2.60;;
64401;SDS011;50724;42.376;23.768;2023-06-10T12:09:58;3.83;;;2.20;;
64401;SDS011;50724;42.376;23.768;2023-06-10T12:13:00;4.40;;;2.45;;
64401;SDS011;50724;42.376;23.768;2023-06-10T12:16:07;5.57;;;2.80;;
64401;SDS011;50724;42.376;23.768;2023-06-10T12:22:09;5.95;;;3.03;;
64401;SDS011;50724;42.376;23.768;2023-06-10T12:25:10;8.98;;;3.80;;
64401;SDS011;50724;42.376;23.768;2023-06-10T12:28:11;5.63;;;3.10;;
64401;SDS011;50724;42.376;23.768;2023-06-10T12:31:13;5.30;;;3.20;;
64401;SDS011;50724;42.376;23.768;2023-06-10T12:34:13;6.23;;;3.63;;
64401;SDS011;50724;42.376;23.768;2023-06-10T12:37:14;7.90;;;3.30;;
64401;SDS011;50724;42.376;23.768;2023-06-10T12:40:15;7.15;;;3.88;;
64401;SDS011;50724;42.376;23.768;2023-06-10T12:43:19;10.13;;;3.60;;
64401;SDS011;50724;42.376;23.768;2023-06-10T12:46:21;7.97;;;3.45;;
64401;SDS011;50724;42.376;23.768;2023-06-10T12:49:21;7.55;;;4.10;;
64401;SDS011;50724;42.376;23.768;2023-06-10T12:52:22;5.45;;;3.05;;
64401;SDS011;50724;42.376;23.768;2023-06-10T12:55:22;7.07;;;3.53;;
64401;SDS011;50724;42.376;23.768;2023-06-10T12:58:22;7.20;;;3.33;;
64401;SDS011;50724;42.376;23.768;2023-06-10T13:01:24;6.38;;;3.72;;
64401;SDS011;50724;42.376;23.768;2023-06-10T13:04:24;6.10;;;3.00;;
64401;SDS011;50724;42.376;23.768;2023-06-10T13:07:25;6.00;;;3.42;;
64401;SDS011;50724;42.376;23.768;2023-06-10T13:10:26;6.38;;;3.40;;
64401;SDS011;50724;42.376;23.768;2023-06-10T13:13:27;8.68;;;3.50;;
64401;SDS011;50724;42.376;23.768;2023-06-10T13:16:28;5.40;;;3.17;;
64401;SDS011;50724;42.376;23.768;2023-06-10T13:19:30;5.45;;;3.28;;
64401;SDS011;50724;42.376;23.768;2023-06-10T13:22:30;5.70;;;3.20;;
64401;SDS011;50724;42.376;23.768;2023-06-10T13:25:32;5.53;;;3.05;;
64401;SDS011;50724;42.376;23.768;2023-06-10T13:28:33;6.00;;;3.30;;
64401;SDS011;50724;42.376;23.768;2023-06-10T13:31:33;5.90;;;3.27;;
64401;SDS011;50724;42.376;23.768;2023-06-10T13:34:35;5.97;;;3.28;;
64401;SDS011;50724;42.376;23.768;2023-06-10T13:37:36;9.32;;;3.88;;
64401;SDS011;50724;42.376;23.768;2023-06-10T13:40:36;6.85;;;3.72;;
64401;SDS011;50724;42.376;23.768;2023-06-10T13:43:37;6.25;;;3.00;;
64401;SDS011;50724;42.376;23.768;2023-06-10T13:46:38;6.07;;;3.00;;
64401;SDS011;50724;42.376;23.768;2023-06-10T13:49:38;5.70;;;3.05;;
64401;SDS011;50724;42.376;23.768;2023-06-10T13:52:47;5.00;;;2.70;;
64401;SDS011;50724;42.376;23.768;2023-06-10T13:55:47;4.33;;;2.07;;
64401;SDS011;50724;42.376;23.768;2023-06-10T13:58:48;4.70;;;2.53;;
64401;SDS011;50724;42.376;23.768;2023-06-10T14:01:48;4.13;;;2.42;;
64401;SDS011;50724;42.376;23.768;2023-06-10T14:04:49;4.47;;;2.50;;
64401;SDS011;50724;42.376;23.768;2023-06-10T14:07:49;4.33;;;2.47;;
64401;SDS011;50724;42.376;23.768;2023-06-10T14:10:50;4.27;;;2.57;;
64401;SDS011;50724;42.376;23.768;2023-06-10T14:13:51;5.40;;;3.05;;
64401;SDS011;50724;42.376;23.768;2023-06-10T14:16:51;4.65;;;2.58;;
64401;SDS011;50724;42.376;23.768;2023-06-10T14:20:01;4.65;;;2.50;;
64401;SDS011;50724;42.376;23.768;2023-06-10T14:23:10;4.15;;;2.45;;
64401;SDS011;50724;42.376;23.768;2023-06-10T14:26:19;5.15;;;3.08;;
64401;SDS011;50724;42.376;23.768;2023-06-10T14:29:21;6.75;;;2.55;;
64401;SDS011;50724;42.376;23.768;2023-06-10T14:32:22;5.32;;;2.50;;
64401;SDS011;50724;42.376;23.768;2023-06-10T14:35:22;4.50;;;2.70;;
64401;SDS011;50724;42.376;23.768;2023-06-10T14:38:23;6.07;;;2.75;;
64401;SDS011;50724;42.376;23.768;2023-06-10T14:41:23;6.63;;;2.90;;
64401;SDS011;50724;42.376;23.768;2023-06-10T14:44:24;4.15;;;2.58;;
64401;SDS011;50724;42.376;23.768;2023-06-10T14:47:25;6.77;;;2.77;;
64401;SDS011;50724;42.376;23.768;2023-06-10T14:50:26;7.55;;;3.08;;
64401;SDS011;50724;42.376;23.768;2023-06-10T14:53:26;6.03;;;3.00;;
64401;SDS011;50724;42.376;23.768;2023-06-10T14:56:26;7.83;;;3.07;;
64401;SDS011;50724;42.376;23.768;2023-06-10T14:59:27;4.67;;;2.57;;
64401;SDS011;50724;42.376;23.768;2023-06-10T15:02:27;5.53;;;3.35;;
64401;SDS011;50724;42.376;23.768;2023-06-10T15:05:27;5.57;;;3.27;;
64401;SDS011;50724;42.376;23.768;2023-06-10T15:08:28;5.22;;;3.03;;
64401;SDS011;50724;42.376;23.768;2023-06-10T15:11:29;5.43;;;3.10;;
64401;SDS011;50724;42.376;23.768;2023-06-10T15:14:29;5.13;;;2.85;;
64401;SDS011;50724;42.376;23.768;2023-06-10T15:17:30;5.72;;;2.88;;
